createdAt,value
2023-03-21T00:01:44.806Z,8.49
2023-03-21T00:04:11.239Z,8.44
2023-03-21T00:06:37.585Z,8.43
2023-03-21T00:09:03.933Z,8.44
2023-03-21T00:11:30.243Z,8.39
2023-03-21T00:13:56.542Z,8.47
2023-03-21T00:16:29.502Z,8.39
2023-03-21T00:18:58.328Z,8.41
2023-03-21T00:21:52.316Z,8.40
2023-03-21T00:24:11.996Z,8.33
2023-03-21T00:26:38.387Z,8.29
2023-03-21T00:29:04.996Z,8.36
2023-03-21T00:31:31.352Z,8.33
2023-03-21T00:33:57.677Z,8.31
2023-03-21T00:36:23.975Z,8.33
2023-03-21T00:38:50.297Z,8.33
2023-03-21T00:41:26.216Z,8.27
2023-03-21T00:44:01.772Z,8.35
2023-03-21T00:46:39.774Z,8.35
2023-03-21T00:49:08.777Z,8.23
2023-03-21T00:51:35.078Z,8.22
2023-03-21T00:54:01.435Z,8.29
2023-03-21T00:56:27.873Z,8.26
2023-03-21T00:58:54.157Z,8.17
2023-03-21T01:01:20.673Z,8.20
2023-03-21T01:03:46.991Z,8.23
2023-03-21T01:06:13.767Z,8.23
2023-03-21T01:08:51.742Z,8.17
2023-03-21T01:11:22.051Z,8.14
2023-03-21T01:13:54.694Z,8.14
2023-03-21T01:16:25.041Z,8.03
2023-03-21T01:18:51.464Z,7.98
2023-03-21T01:21:18.160Z,8.06
2023-03-21T01:23:45.196Z,7.99
2023-03-21T01:26:12.928Z,8.01
2023-03-21T01:28:41.239Z,8.06
2023-03-21T01:31:08.531Z,8.06
2023-03-21T01:33:35.392Z,7.99
2023-03-21T01:36:12.294Z,7.98
2023-03-21T01:38:39.957Z,7.94
2023-03-21T01:41:18.763Z,7.91
2023-03-21T01:43:46.025Z,7.93
2023-03-21T01:46:45.403Z,7.88
2023-03-21T01:49:23.543Z,7.87
2023-03-21T01:52:11.482Z,7.86
2023-03-21T01:54:41.313Z,7.91
2023-03-21T01:57:11.889Z,7.91
2023-03-21T01:59:46.059Z,7.87
2023-03-21T02:02:19.145Z,7.83
2023-03-21T02:04:45.461Z,7.81
2023-03-21T02:07:16.945Z,7.88
2023-03-21T02:09:47.249Z,7.83
2023-03-21T02:12:13.627Z,7.81
2023-03-21T02:14:39.968Z,7.88
2023-03-21T02:17:19.433Z,7.85
2023-03-21T02:20:03.725Z,7.84
2023-03-21T02:22:46.308Z,7.89
2023-03-21T02:25:34.064Z,7.87
2023-03-21T02:28:09.966Z,7.82
2023-03-21T02:30:51.252Z,7.82
2023-03-21T02:33:30.395Z,7.81
2023-03-21T02:36:15.078Z,7.80
2023-03-21T02:39:05.930Z,7.71
2023-03-21T02:41:45.494Z,7.73
2023-03-21T02:44:18.623Z,7.70
2023-03-21T02:47:04.619Z,7.75
2023-03-21T02:49:38.142Z,7.66
2023-03-21T02:52:15.669Z,7.63
2023-03-21T02:54:49.661Z,7.64
2023-03-21T02:57:19.912Z,7.60
2023-03-21T02:59:54.524Z,7.56
2023-03-21T03:02:28.068Z,7.55
2023-03-21T03:04:54.490Z,7.56
2023-03-21T03:07:53.883Z,7.53
2023-03-21T03:10:43.787Z,7.45
2023-03-21T03:13:19.029Z,7.51
2023-03-21T03:16:20.202Z,7.46
2023-03-21T03:18:51.182Z,7.52
2023-03-21T03:21:26.226Z,7.49
2023-03-21T03:24:13.650Z,7.49
2023-03-21T03:26:47.998Z,7.52
2023-03-21T03:29:17.511Z,7.53
2023-03-21T03:31:50.790Z,7.46
2023-03-21T03:34:21.795Z,7.42
2023-03-21T03:36:53.564Z,7.46
2023-03-21T03:39:19.928Z,7.42
2023-03-21T03:42:27.434Z,7.41
2023-03-21T03:44:46.920Z,7.40
2023-03-21T03:47:50.835Z,7.39
2023-03-21T03:50:34.361Z,7.35
2023-03-21T03:53:18.146Z,7.34
2023-03-21T03:55:45.825Z,7.33
2023-03-21T03:58:21.808Z,7.31
2023-03-21T04:00:51.553Z,7.29
2023-03-21T04:03:21.260Z,7.30
2023-03-21T04:05:47.630Z,7.27
2023-03-21T04:08:15.443Z,7.25
2023-03-21T04:10:43.332Z,7.30
2023-03-21T04:13:09.885Z,7.28
2023-03-21T04:15:36.514Z,7.32
2023-03-21T04:18:02.878Z,7.27
2023-03-21T04:20:36.610Z,7.25
2023-03-21T04:23:03.436Z,7.20
2023-03-21T04:25:33.932Z,7.22
2023-03-21T04:28:00.808Z,7.22
2023-03-21T04:30:27.118Z,7.20
2023-03-21T04:32:53.437Z,7.21
2023-03-21T04:35:20.593Z,7.18
2023-03-21T04:37:47.131Z,7.15
2023-03-21T04:40:13.631Z,7.13
2023-03-21T04:42:39.982Z,7.10
2023-03-21T04:45:06.908Z,7.08
2023-03-21T04:47:33.210Z,7.08
2023-03-21T04:49:59.537Z,7.08
2023-03-21T04:52:25.825Z,7.16
2023-03-21T04:54:52.365Z,7.09
2023-03-21T04:57:19.067Z,7.09
2023-03-21T04:59:45.439Z,7.07
2023-03-21T05:02:12.145Z,7.07
2023-03-21T05:04:38.765Z,7.06
2023-03-21T05:07:05.541Z,7.07
2023-03-21T05:09:31.859Z,7.04
2023-03-21T05:11:58.223Z,7.05
2023-03-21T05:14:26.234Z,7.03
2023-03-21T05:16:53.427Z,7.04
2023-03-21T05:19:23.254Z,7.06
2023-03-21T05:21:50.146Z,7.07
2023-03-21T05:24:19.311Z,7.05
2023-03-21T05:26:46.715Z,7.02
2023-03-21T05:29:13.028Z,7.04
2023-03-21T05:31:39.357Z,7.09
2023-03-21T05:34:05.689Z,7.06
2023-03-21T05:36:31.960Z,7.09
2023-03-21T05:38:58.261Z,7.13
2023-03-21T05:41:24.600Z,7.12
2023-03-21T05:43:50.889Z,7.15
2023-03-21T05:46:17.277Z,7.14
2023-03-21T05:48:43.675Z,7.17
2023-03-21T05:51:09.980Z,7.13
2023-03-21T05:53:36.632Z,7.14
2023-03-21T05:56:03.291Z,7.16
2023-03-21T05:58:29.841Z,7.16
2023-03-21T06:00:56.169Z,7.18
2023-03-21T06:03:22.536Z,7.19
2023-03-21T06:05:49.056Z,7.19
2023-03-21T06:08:15.357Z,7.23
2023-03-21T06:10:41.819Z,7.26
2023-03-21T06:13:08.272Z,7.28
2023-03-21T06:15:34.606Z,7.29
2023-03-21T06:18:00.918Z,7.35
2023-03-21T06:20:27.264Z,7.34
2023-03-21T06:22:53.571Z,7.35
2023-03-21T06:25:20.191Z,7.39
2023-03-21T06:27:46.569Z,7.39
2023-03-21T06:30:13.454Z,7.38
2023-03-21T06:32:39.734Z,7.40
2023-03-21T06:35:06.594Z,7.44
2023-03-21T06:37:32.882Z,7.44
2023-03-21T06:39:59.151Z,7.50
2023-03-21T06:42:25.479Z,7.55
2023-03-21T06:44:51.759Z,7.52
2023-03-21T06:47:18.073Z,7.53
2023-03-21T06:49:44.381Z,7.53
2023-03-21T06:52:11.192Z,7.54
2023-03-21T06:54:37.499Z,7.54
2023-03-21T06:57:06.755Z,7.58
2023-03-21T06:59:33.196Z,7.66
2023-03-21T07:01:59.496Z,7.69
2023-03-21T07:04:25.867Z,7.73
2023-03-21T07:06:52.194Z,7.71
2023-03-21T07:09:18.509Z,7.79
2023-03-21T07:11:44.805Z,7.85
2023-03-21T07:14:11.164Z,7.88
2023-03-21T07:16:39.700Z,7.88
2023-03-21T07:19:06.060Z,7.86
2023-03-21T07:21:32.360Z,7.87
2023-03-21T07:23:59.296Z,7.88
2023-03-21T07:26:25.610Z,7.93
2023-03-21T07:28:51.888Z,7.96
2023-03-21T07:31:18.276Z,7.94
2023-03-21T07:33:44.616Z,7.98
2023-03-21T07:36:13.768Z,8.00
2023-03-21T07:38:40.080Z,8.01
2023-03-21T07:41:06.649Z,8.01
2023-03-21T07:43:33.168Z,7.99
2023-03-21T07:46:00.119Z,7.99
2023-03-21T07:48:27.246Z,7.97
2023-03-21T07:50:53.600Z,7.92
2023-03-21T07:53:19.977Z,7.94
2023-03-21T07:55:50.798Z,7.88
2023-03-21T07:58:17.094Z,7.89
2023-03-21T08:00:43.380Z,7.95
2023-03-21T08:03:09.787Z,7.97
2023-03-21T08:05:37.933Z,7.97
2023-03-21T08:08:05.684Z,7.95
2023-03-21T08:10:32.140Z,7.96
2023-03-21T08:12:58.465Z,7.99
2023-03-21T08:15:24.917Z,7.95
2023-03-21T08:17:51.412Z,7.92
2023-03-21T08:20:20.167Z,7.96
2023-03-21T08:22:47.236Z,7.93
2023-03-21T08:25:15.070Z,7.99
2023-03-21T08:27:42.653Z,7.98
2023-03-21T08:30:12.614Z,8.04
2023-03-21T08:32:39.871Z,8.05
2023-03-21T08:35:07.904Z,8.10
2023-03-21T08:37:34.265Z,8.09
2023-03-21T08:40:00.621Z,8.12
2023-03-21T08:42:26.977Z,8.18
2023-03-21T08:44:53.308Z,8.14
2023-03-21T08:47:19.672Z,8.17
2023-03-21T08:49:45.944Z,8.24
2023-03-21T08:52:12.266Z,8.24
2023-03-21T08:54:38.624Z,8.26
2023-03-21T08:57:04.977Z,8.30
2023-03-21T08:59:31.354Z,8.35
2023-03-21T09:01:57.656Z,8.48
2023-03-21T09:04:24.035Z,8.55
2023-03-21T09:06:50.423Z,8.69
2023-03-21T09:09:16.768Z,8.78
2023-03-21T09:11:43.404Z,8.89
2023-03-21T09:14:09.764Z,8.86
2023-03-21T09:16:36.083Z,8.86
2023-03-21T09:19:02.428Z,8.92
2023-03-21T09:21:28.756Z,8.88
2023-03-21T09:23:55.295Z,8.92
2023-03-21T09:26:23.788Z,8.92
2023-03-21T09:28:50.336Z,8.91
2023-03-21T09:31:17.840Z,8.97
2023-03-21T09:33:44.128Z,8.96
2023-03-21T09:36:11.927Z,8.99
2023-03-21T09:38:38.323Z,8.91
2023-03-21T09:41:08.846Z,8.97
2023-03-21T09:43:47.071Z,8.95
2023-03-21T09:46:27.157Z,9.09
2023-03-21T09:49:01.320Z,9.07
2023-03-21T09:51:33.145Z,9.11
2023-03-21T09:54:04.962Z,9.09
2023-03-21T09:56:31.330Z,9.17
2023-03-21T09:59:00.432Z,9.24
2023-03-21T10:01:29.222Z,9.32
2023-03-21T10:03:56.806Z,9.43
2023-03-21T10:06:25.128Z,9.50
2023-03-21T10:08:51.512Z,9.60
2023-03-21T10:11:52.869Z,9.66
2023-03-21T10:14:37.196Z,9.69
2023-03-21T10:17:23.733Z,9.77
2023-03-21T10:20:01.125Z,9.78
2023-03-21T10:22:27.419Z,9.84
2023-03-21T10:24:53.717Z,9.87
2023-03-21T10:27:20.052Z,10.02
2023-03-21T10:29:49.449Z,10.18
2023-03-21T10:32:17.712Z,10.21
2023-03-21T10:34:48.947Z,10.19
2023-03-21T10:37:15.665Z,10.23
2023-03-21T10:39:50.717Z,10.34
2023-03-21T10:42:21.754Z,10.34
2023-03-21T10:44:49.740Z,10.30
2023-03-21T10:47:22.231Z,10.27
2023-03-21T10:52:36.982Z,10.28
2023-03-21T10:55:17.028Z,10.28
2023-03-21T10:57:43.578Z,10.33
2023-03-21T11:00:23.064Z,10.39
2023-03-21T11:02:51.392Z,10.47
2023-03-21T11:05:35.568Z,10.35
2023-03-21T11:08:17.632Z,10.44
2023-03-21T11:10:49.991Z,10.36
2023-03-21T11:13:32.858Z,10.40
2023-03-21T11:16:08.977Z,10.42
2023-03-21T11:18:44.295Z,10.45
2023-03-21T11:21:13.426Z,10.35
2023-03-21T11:23:46.080Z,10.39
2023-03-21T11:26:29.683Z,10.33
2023-03-21T11:28:56.608Z,10.22
2023-03-21T11:31:36.321Z,10.22
2023-03-21T11:34:06.487Z,10.28
2023-03-21T11:36:35.900Z,10.26
2023-03-21T11:39:11.354Z,10.30
2023-03-21T11:41:40.440Z,10.26
2023-03-21T11:44:07.003Z,10.24
2023-03-21T11:46:40.699Z,10.20
2023-03-21T11:49:10.118Z,10.21
2023-03-21T11:52:05.550Z,10.16
2023-03-21T11:54:48.615Z,10.21
2023-03-21T11:57:40.890Z,10.31
2023-03-21T12:00:13.126Z,10.24
2023-03-21T12:02:48.542Z,10.35
2023-03-21T12:05:22.952Z,10.39
2023-03-21T12:08:25.319Z,10.44
2023-03-21T12:11:04.277Z,10.49
2023-03-21T12:13:48.755Z,10.51
2023-03-21T12:17:00.603Z,10.44
2023-03-21T12:19:57.198Z,10.51
2023-03-21T12:22:32.670Z,10.59
2023-03-21T12:25:12.146Z,10.59
2023-03-21T12:28:03.603Z,10.62
2023-03-21T12:30:40.180Z,10.70
2023-03-21T12:33:33.463Z,10.79
2023-03-21T12:35:59.890Z,10.91
2023-03-21T12:38:40.353Z,10.94
2023-03-21T12:41:21.626Z,10.96
2023-03-21T12:44:26.093Z,11.02
2023-03-21T12:47:03.271Z,11.00
2023-03-21T12:49:38.352Z,11.09
2023-03-21T12:52:11.670Z,11.13
2023-03-21T12:54:46.583Z,11.09
2023-03-21T12:57:21.221Z,11.15
2023-03-21T13:00:17.421Z,11.13
2023-03-21T13:02:50.466Z,11.12
2023-03-21T13:05:22.578Z,11.22
2023-03-21T13:07:54.518Z,11.30
2023-03-21T13:10:21.536Z,11.35
2023-03-21T13:12:47.733Z,11.31
2023-03-21T13:15:44.374Z,11.23
2023-03-21T13:18:29.376Z,11.27
2023-03-21T13:20:58.054Z,11.34
2023-03-21T13:23:32.865Z,11.38
2023-03-21T13:25:59.381Z,11.44
2023-03-21T13:28:28.734Z,11.45
2023-03-21T13:31:24.735Z,11.48
2023-03-21T13:33:54.078Z,11.50
2023-03-21T13:36:29.996Z,11.52
2023-03-21T13:39:05.608Z,11.49
2023-03-21T13:41:35.201Z,11.44
2023-03-21T13:44:04.216Z,11.44
2023-03-21T13:46:35.839Z,11.44
2023-03-21T13:49:10.023Z,11.34
2023-03-21T13:51:36.275Z,11.31
2023-03-21T13:54:06.924Z,11.28
2023-03-21T13:56:45.475Z,11.23
2023-03-21T13:59:38.092Z,11.23
2023-03-21T14:02:13.341Z,11.13
2023-03-21T14:04:42.872Z,11.11
2023-03-21T14:07:24.809Z,11.15
2023-03-21T14:09:53.952Z,11.12
2023-03-21T14:12:25.183Z,11.10
2023-03-21T14:15:19.064Z,11.10
2023-03-21T14:18:00.210Z,11.15
2023-03-21T14:20:30.684Z,11.15
2023-03-21T14:22:57.323Z,11.19
2023-03-21T14:25:37.074Z,11.22
2023-03-21T14:28:14.858Z,11.25
2023-03-21T14:30:43.142Z,11.24
2023-03-21T14:33:35.008Z,11.24
2023-03-21T14:36:14.386Z,11.32
2023-03-21T14:38:41.124Z,11.33
2023-03-21T14:41:22.028Z,11.41
2023-03-21T14:44:16.870Z,11.42
2023-03-21T14:46:44.014Z,11.43
2023-03-21T14:49:32.809Z,11.43
2023-03-21T14:52:01.948Z,11.45
2023-03-21T14:54:29.694Z,11.41
2023-03-21T14:57:10.430Z,11.44
2023-03-21T14:59:38.978Z,11.45
2023-03-21T15:02:16.928Z,11.52
2023-03-21T15:04:48.928Z,11.54
2023-03-21T15:07:31.239Z,11.56
2023-03-21T15:10:00.528Z,11.66
2023-03-21T15:12:26.865Z,11.68
2023-03-21T15:14:53.750Z,11.78
2023-03-21T15:17:20.710Z,11.83
2023-03-21T15:19:47.131Z,11.79
2023-03-21T15:22:39.310Z,11.82
2023-03-21T15:25:17.858Z,11.76
2023-03-21T15:27:44.346Z,11.69
2023-03-21T15:30:31.681Z,11.73
2023-03-21T15:33:05.184Z,11.70
2023-03-21T15:35:38.013Z,11.76
2023-03-21T15:38:05.859Z,11.74
2023-03-21T15:40:34.959Z,11.73
2023-03-21T15:43:15.217Z,11.68
2023-03-21T15:45:56.055Z,11.69
2023-03-21T15:48:27.428Z,11.66
2023-03-21T15:51:02.851Z,11.64
2023-03-21T15:53:32.928Z,11.64
2023-03-21T15:55:59.941Z,11.64
2023-03-21T15:58:27.450Z,11.69
2023-03-21T16:00:56.247Z,11.70
2023-03-21T16:03:26.901Z,11.64
2023-03-21T16:06:20.852Z,11.66
2023-03-21T16:08:52.934Z,11.62
2023-03-21T16:11:27.082Z,11.66
2023-03-21T16:13:54.802Z,11.60
2023-03-21T16:16:26.653Z,11.58
2023-03-21T16:18:55.780Z,11.56
2023-03-21T16:21:28.543Z,11.53
2023-03-21T16:23:55.702Z,11.57
2023-03-21T16:26:28.517Z,11.52
2023-03-21T16:28:55.343Z,11.51
2023-03-21T16:31:24.209Z,11.48
2023-03-21T16:33:51.039Z,11.45
2023-03-21T16:36:20.283Z,11.43
2023-03-21T16:38:47.813Z,11.39
2023-03-21T16:41:14.424Z,11.40
2023-03-21T16:43:41.132Z,11.42
2023-03-21T16:46:11.816Z,11.40
2023-03-21T16:48:38.150Z,11.39
2023-03-21T16:51:04.591Z,11.35
2023-03-21T16:53:30.922Z,11.33
2023-03-21T16:55:57.335Z,11.31
2023-03-21T16:58:23.618Z,11.29
2023-03-21T17:00:49.920Z,11.23
2023-03-21T17:03:16.670Z,11.23
2023-03-21T17:05:42.970Z,11.21
2023-03-21T17:08:17.138Z,11.19
2023-03-21T17:10:43.775Z,11.14
2023-03-21T17:13:10.129Z,11.12
2023-03-21T17:15:36.469Z,11.08
2023-03-21T17:18:03.093Z,11.06
2023-03-21T17:20:32.392Z,11.05
2023-03-21T17:22:59.651Z,11.04
2023-03-21T17:25:26.125Z,11.01
2023-03-21T17:27:52.629Z,10.96
2023-03-21T17:30:21.799Z,10.94
2023-03-21T17:32:50.134Z,10.93
2023-03-21T17:35:17.239Z,10.92
2023-03-21T17:37:44.255Z,10.90
2023-03-21T17:40:11.698Z,10.90
2023-03-21T17:42:38.043Z,10.87
2023-03-21T17:45:04.751Z,10.87
2023-03-21T17:47:31.062Z,10.83
2023-03-21T17:49:57.378Z,10.83
2023-03-21T17:52:24.717Z,10.82
2023-03-21T17:54:51.133Z,10.82
2023-03-21T17:57:17.442Z,10.82
2023-03-21T17:59:43.804Z,10.75
2023-03-21T18:02:10.239Z,10.71
2023-03-21T18:04:36.627Z,10.70
2023-03-21T18:07:03.581Z,10.69
2023-03-21T18:09:29.901Z,10.68
2023-03-21T18:11:56.184Z,10.65
2023-03-21T18:14:27.914Z,10.62
2023-03-21T18:16:57.974Z,10.63
2023-03-21T18:19:24.275Z,10.63
2023-03-21T18:21:50.775Z,10.59
2023-03-21T18:24:17.089Z,10.57
2023-03-21T18:26:43.988Z,10.54
2023-03-21T18:32:06.303Z,10.52
2023-03-21T18:34:34.831Z,10.52
2023-03-21T18:37:03.972Z,10.52
2023-03-21T18:39:31.536Z,10.48
2023-03-21T18:41:57.955Z,10.46
2023-03-21T18:44:24.520Z,10.44
2023-03-21T18:46:51.515Z,10.49
2023-03-21T18:50:01.987Z,10.45
2023-03-21T18:52:04.763Z,10.41
2023-03-21T18:54:31.377Z,10.41
2023-03-21T18:59:43.985Z,10.38
2023-03-21T19:02:13.790Z,10.39
2023-03-21T19:04:40.492Z,10.38
2023-03-21T19:07:06.904Z,10.37
2023-03-21T19:09:54.821Z,10.37
2023-03-21T19:12:19.577Z,10.39
2023-03-21T19:14:45.910Z,10.41
2023-03-21T19:18:20.707Z,10.39
2023-03-21T19:19:58.487Z,10.38
2023-03-21T19:22:24.769Z,10.36
2023-03-21T19:24:51.104Z,10.35
2023-03-21T19:27:17.380Z,10.36
2023-03-21T19:29:43.808Z,10.35
2023-03-21T19:32:10.179Z,10.33
2023-03-21T19:34:36.534Z,10.32
2023-03-21T19:37:02.989Z,10.32
2023-03-21T19:39:29.361Z,10.31
2023-03-21T19:42:13.438Z,10.31
2023-03-21T19:44:41.744Z,10.31
2023-03-21T19:47:08.057Z,10.26
2023-03-21T19:50:01.971Z,10.25
2023-03-21T19:52:21.352Z,10.23
2023-03-21T19:54:47.789Z,10.23
2023-03-21T19:57:15.355Z,10.22
2023-03-21T19:59:41.760Z,10.19
2023-03-21T20:02:33.345Z,10.16
2023-03-21T20:04:54.390Z,10.14
2023-03-21T20:07:20.688Z,10.13
2023-03-21T20:09:52.820Z,10.10
2023-03-21T20:12:20.123Z,10.08
2023-03-21T20:14:46.480Z,10.07
2023-03-21T20:17:12.958Z,10.05
2023-03-21T20:19:39.297Z,10.04
2023-03-21T20:22:07.778Z,10.02
2023-03-21T20:24:36.214Z,10.00
2023-03-21T20:27:03.259Z,9.99
2023-03-21T20:32:16.008Z,9.99
2023-03-21T20:34:44.299Z,9.97
2023-03-21T20:37:11.787Z,9.95
2023-03-21T20:39:38.329Z,9.95
2023-03-21T20:42:05.510Z,9.92
2023-03-21T20:44:52.253Z,9.92
2023-03-21T20:47:18.380Z,9.93
2023-03-21T20:49:44.707Z,9.90
2023-03-21T20:54:57.774Z,9.90
2023-03-21T20:57:25.768Z,9.88
2023-03-21T20:59:52.174Z,9.84
2023-03-21T21:02:18.496Z,9.82
2023-03-21T21:05:05.085Z,9.79
2023-03-21T21:07:31.300Z,9.81
2023-03-21T21:09:57.678Z,9.77
2023-03-21T21:12:24.393Z,9.75
2023-03-21T21:14:50.697Z,9.75
2023-03-21T21:17:40.680Z,9.74
2023-03-21T21:20:06.377Z,9.73
2023-03-21T21:22:32.669Z,9.71
2023-03-21T21:24:58.963Z,9.69
2023-03-21T21:27:25.231Z,9.67
2023-03-21T21:29:51.568Z,9.69
2023-03-21T21:32:17.841Z,9.68
2023-03-21T21:34:44.175Z,9.68
2023-03-21T21:37:10.486Z,9.68
2023-03-21T21:39:36.800Z,9.66
2023-03-21T21:42:03.807Z,9.66
2023-03-21T21:44:30.114Z,9.64
2023-03-21T21:46:56.493Z,9.64
2023-03-21T21:49:22.789Z,9.65
2023-03-21T21:51:49.093Z,9.63
2023-03-21T21:54:15.393Z,9.63
2023-03-21T21:56:42.012Z,9.65
2023-03-21T21:59:08.344Z,9.65
2023-03-21T22:01:37.097Z,9.64
2023-03-21T22:04:03.759Z,9.63
2023-03-21T22:06:30.041Z,9.61
2023-03-21T22:08:56.322Z,9.58
2023-03-21T22:11:22.718Z,9.59
2023-03-21T22:13:49.020Z,9.56
2023-03-21T22:16:15.340Z,9.56
2023-03-21T22:18:45.424Z,9.53
2023-03-21T22:21:11.789Z,9.52
2023-03-21T22:23:38.148Z,9.58
2023-03-21T22:26:04.718Z,9.54
2023-03-21T22:28:31.054Z,9.50
2023-03-21T22:30:57.375Z,9.50
2023-03-21T22:33:23.729Z,9.49
2023-03-21T22:35:51.021Z,9.49
2023-03-21T22:38:18.171Z,9.50
2023-03-21T22:40:44.374Z,9.48
2023-03-21T22:43:10.693Z,9.45
2023-03-21T22:45:37.089Z,9.44
2023-03-21T22:48:03.727Z,9.46
2023-03-21T22:50:30.087Z,9.43
2023-03-21T22:52:56.363Z,9.40
2023-03-21T22:55:22.682Z,9.39
2023-03-21T22:57:48.971Z,9.38
2023-03-21T23:00:15.771Z,9.34
2023-03-21T23:02:42.365Z,9.37
2023-03-21T23:05:09.524Z,9.36
2023-03-21T23:07:35.733Z,9.34
2023-03-21T23:10:02.193Z,9.36
2023-03-21T23:12:28.988Z,9.34
2023-03-21T23:14:55.308Z,9.32
2023-03-21T23:17:21.606Z,9.34
2023-03-21T23:19:47.895Z,9.35
2023-03-21T23:22:14.517Z,9.33
2023-03-21T23:24:40.798Z,9.34
2023-03-21T23:27:07.329Z,9.31
2023-03-21T23:29:33.654Z,9.29
2023-03-21T23:31:59.953Z,9.28
2023-03-21T23:34:26.348Z,9.28
2023-03-21T23:36:52.613Z,9.27
2023-03-21T23:39:18.896Z,9.26
2023-03-21T23:41:45.255Z,9.27
2023-03-21T23:44:11.880Z,9.26
2023-03-21T23:46:38.270Z,9.23
2023-03-21T23:49:04.616Z,9.27
2023-03-21T23:51:30.905Z,9.24
2023-03-21T23:53:57.214Z,9.22
2023-03-21T23:56:25.804Z,9.21
2023-03-21T23:58:52.184Z,9.18
